Time;durP1;ratioP1;P1;durP2;ratioP2;P2;SDS_P1;SDS_P2;PMS_P1;PMS_P2;Temp;Humidity;BMP_temperature;BMP_pressure;BME280_temperature;BME280_humidity;BME280_pressure;Samples;Min_cycle;Max_cycle;Signal;HPM_P1;HPM_P2
2023/03/25 00:05:39;;;;;;;0.30;0.30;;;13.10;99.90;;;;;;20995508;28;20217;-70
2023/03/25 00:15:44;;;;;;;0.37;0.23;;;12.20;99.90;;;;;;20976144;28;20279;-70
2023/03/25 00:25:47;;;;;;;0.33;0.23;;;;;;;;;;20995115;28;20738;-69
2023/03/25 00:35:53;;;;;;;0.20;0.20;;;;;;;;;;20987192;28;20270;-69
2023/03/25 00:45:55;;;;;;;0.33;0.30;;;;;;;;;;20971258;28;20209;-69
2023/03/25 00:55:57;;;;;;;0.70;0.40;;;11.80;99.90;;;;;;20972568;28;20274;-70
2023/03/25 01:05:59;;;;;;;0.43;0.30;;;;;;;;;;20970513;22;20293;-68
2023/03/25 01:16:00;;;;;;;0.87;0.40;;;;;;;;;;20803242;28;20257;-66
2023/03/25 01:26:02;;;;;;;0.33;0.30;;;;;;;;;;20786916;28;20218;-66
2023/03/25 01:36:08;;;;;;;1.63;0.40;;;;;;;;;;20786625;28;20708;-66
2023/03/25 01:46:13;;;;;;;0.30;0.30;;;11.20;99.90;;;;;;20798763;28;20593;-66
2023/03/25 01:56:18;;;;;;;0.20;0.20;;;11.00;99.90;;;;;;20753596;28;20871;-66
2023/03/25 02:06:27;;;;;;;0.10;0.10;;;10.90;99.90;;;;;;20785450;28;20280;-66
2023/03/25 02:16:29;;;;;;;1.17;0.17;;;;;;;;;;20785305;28;20225;-66
2023/03/25 02:26:41;;;;;;;0.30;0.30;;;10.90;99.90;;;;;;20785420;28;20751;-66
2023/03/25 02:37:05;;;;;;;0.10;0.10;;;;;;;;;;20801421;28;20226;-66
2023/03/25 02:47:14;;;;;;;0.20;0.20;;;10.80;99.90;;;;;;20800228;28;20264;-66
2023/03/25 02:57:18;;;;;;;0.63;0.40;;;;;;;;;;20785077;28;20218;-66
2023/03/25 03:07:27;;;;;;;0.20;0.20;;;10.70;99.90;;;;;;20795895;28;20231;-66
2023/03/25 03:17:54;;;;;;;0.17;0.17;;;10.80;99.90;;;;;;20812710;28;20238;-66
2023/03/25 03:28:18;;;;;;;0.67;0.50;;;10.80;99.90;;;;;;20813241;28;20206;-66
2023/03/25 03:38:22;;;;;;;0.23;0.20;;;;;;;;;;20795916;28;20301;-67
2023/03/25 03:48:39;;;;;;;0.30;0.27;;;;;;;;;;20795297;28;20214;-66
2023/03/25 03:58:42;;;;;;;0.20;0.20;;;;;;;;;;20792924;28;20214;-66
2023/03/25 04:08:57;;;;;;;0.77;0.10;;;10.70;99.90;;;;;;20866895;28;20279;-66
2023/03/25 04:18:59;;;;;;;0.47;0.20;;;;;;;;;;20891302;28;20218;-66
2023/03/25 04:29:01;;;;;;;1.37;0.60;;;;;;;;;;20873964;28;20287;-66
2023/03/25 04:39:03;;;;;;;0.20;0.13;;;;;;;;;;20889978;28;20742;-67
2023/03/25 04:49:12;;;;;;;0.20;0.20;;;;;;;;;;20888606;28;20201;-66
2023/03/25 04:59:14;;;;;;;1.60;0.50;;;;;;;;;;20847703;28;20230;-66
2023/03/25 05:09:23;;;;;;;1.30;0.80;;;;;;;;;;20801771;28;20253;-67
2023/03/25 05:19:27;;;;;;;0.30;0.27;;;;;;;;;;20787811;28;20651;-67
2023/03/25 05:29:32;;;;;;;0.47;0.30;;;;;;;;;;20786522;28;20214;-68
2023/03/25 05:39:34;;;;;;;0.60;0.30;;;;;;;;;;20785866;28;20222;-67
2023/03/25 05:49:36;;;;;;;0.43;0.30;;;;;;;;;;20782318;28;20269;-67
2023/03/25 05:59:39;;;;;;;0.43;0.23;;;10.00;99.90;;;;;;20785050;28;20222;-68
2023/03/25 06:09:45;;;;;;;0.43;0.20;;;;;;;;;;20784704;28;20226;-68
2023/03/25 06:19:46;;;;;;;0.50;0.30;;;;;;;;;;20784230;28;20214;-68
2023/03/25 06:29:48;;;;;;;0.80;0.30;;;;;;;;;;20789095;28;20670;-67
2023/03/25 06:39:55;;;;;;;0.33;0.33;;;;;;;;;;20799017;28;20248;-67
2023/03/25 06:49:58;;;;;;;0.70;0.50;;;;;;;;;;20800084;28;20264;-68
2023/03/25 06:59:59;;;;;;;1.63;0.80;;;;;;;;;;20814981;28;20223;-68
2023/03/25 07:10:01;;;;;;;1.77;0.47;;;;;;;;;;20798092;28;20214;-68
2023/03/25 07:20:06;;;;;;;1.23;0.73;;;;;;;;;;20795108;22;20535;-71
2023/03/25 07:30:08;;;;;;;1.83;0.50;;;;;;;;;;20745809;28;20230;-70
2023/03/25 07:40:09;;;;;;;0.80;0.40;;;11.50;99.90;;;;;;20755141;28;20277;-70
2023/03/25 07:50:11;;;;;;;8.07;2.20;;;;;;;;;;20856911;28;20215;-71
2023/03/25 08:00:13;;;;;;;0.83;0.60;;;11.40;99.90;;;;;;20854895;28;20217;-70
2023/03/25 08:10:15;;;;;;;0.93;0.53;;;;;;;;;;20821783;28;20429;-70
2023/03/25 08:20:18;;;;;;;0.70;0.40;;;;;;;;;;20820887;28;20234;-70
2023/03/25 08:30:19;;;;;;;0.73;0.40;;;;;;;;;;20821885;28;20371;-71
2023/03/25 08:40:21;;;;;;;1.10;0.50;;;;;;;;;;20817768;28;20757;-71
2023/03/25 08:50:23;;;;;;;0.40;0.37;;;;;;;;;;20819809;28;20223;-72
2023/03/25 09:00:26;;;;;;;0.80;0.40;;;;;;;;;;20869155;28;20217;-70
2023/03/25 09:10:27;;;;;;;0.97;0.20;;;;;;;;;;20820614;28;20260;-70
2023/03/25 09:20:32;;;;;;;0.10;0.10;;;;;;;;;;20839211;28;20218;-72
2023/03/25 09:30:34;;;;;;;0.43;0.33;;;;;;;;;;20833955;28;20210;-72
2023/03/25 09:40:37;;;;;;;1.03;0.23;;;;;;;;;;20816628;28;20304;-72
2023/03/25 09:50:40;;;;;;;0.80;0.43;;;11.70;99.90;;;;;;20812773;28;20260;-71
2023/03/25 10:00:42;;;;;;;0.20;0.20;;;11.90;99.90;;;;;;20815396;28;20268;-72
2023/03/25 10:11:03;;;;;;;1.67;0.40;;;;;;;;;;20807580;28;20210;-71
2023/03/25 10:21:05;;;;;;;0.83;0.50;;;;;;;;;;20838420;28;20218;-71
2023/03/25 10:31:10;;;;;;;0.30;0.20;;;;;;;;;;20849475;28;20210;-71
2023/03/25 10:41:30;;;;;;;0.23;0.20;;;;;;;;;;20835088;28;20276;-70
2023/03/25 10:51:34;;;;;;;2.40;0.33;;;;;;;;;;20816112;28;20651;-70
2023/03/25 11:01:38;;;;;;;0.87;0.40;;;12.10;99.90;;;;;;20806752;28;20722;-70
2023/03/25 11:11:43;;;;;;;0.93;0.20;;;11.90;99.90;;;;;;20802602;28;20223;-70
2023/03/25 11:21:46;;;;;;;1.03;0.40;;;;;;;;;;20820298;28;20219;-69
2023/03/25 11:32:09;;;;;;;0.20;0.20;;;;;;;;;;20817723;28;20214;-72
2023/03/25 11:42:21;;;;;;;0.30;0.30;;;;;;;;;;20810149;28;20248;-70
2023/03/25 11:52:25;;;;;;;0.73;0.43;;;;;;;;;;20799839;28;20588;-70
2023/03/25 12:02:30;;;;;;;0.57;0.30;;;;;;;;;;20821785;28;20234;-69
2023/03/25 12:12:48;;;;;;;0.20;0.20;;;14.20;99.90;;;;;;20822448;28;20693;-70
2023/03/25 12:22:56;;;;;;;0.73;0.23;;;;;;;;;;20852141;28;20280;-70
2023/03/25 12:33:16;;;;;;;0.20;0.20;;;;;;;;;;20874775;28;20218;-70
2023/03/25 12:43:27;;;;;;;1.03;0.50;;;;;;;;;;20858193;28;20279;-70
2023/03/25 12:53:30;;;;;;;1.80;0.50;;;;;;;;;;20814049;28;20272;-71
2023/03/25 13:03:54;;;;;;;0.40;0.30;;;;;;;;;;20868186;28;20219;-70
2023/03/25 13:24:53;;;;;;;0.30;0.30;;;15.30;99.90;;;;;;21079812;27;1304962;-69
2023/03/25 13:35:01;;;;;;;1.23;0.40;;;;;;;;;;20949311;28;20201;-69
2023/03/25 13:45:05;;;;;;;0.40;0.23;;;;;;;;;;20930113;28;20209;-69
2023/03/25 13:55:39;;;;;;;2.20;0.40;;;;;;;;;;20901670;28;20781;-70
2023/03/25 14:05:42;;;;;;;0.50;0.30;;;;;;;;;;20894598;28;20221;-69
2023/03/25 14:15:57;;;;;;;1.30;0.50;;;;;;;;;;20915942;28;20755;-71
2023/03/25 14:26:03;;;;;;;7.33;1.10;;;15.50;99.90;;;;;;20932417;28;20235;-69
2023/03/25 14:36:06;;;;;;;1.40;0.40;;;;;;;;;;20843575;28;20750;-70
2023/03/25 14:46:11;;;;;;;0.37;0.37;;;15.40;99.90;;;;;;20841772;28;20773;-70
2023/03/25 14:56:16;;;;;;;0.83;0.50;;;;;;;;;;20858755;28;20351;-70
2023/03/25 15:06:28;;;;;;;1.23;0.50;;;;;;;;;;20873311;28;20224;-70
2023/03/25 15:16:33;;;;;;;0.30;0.30;;;;;;;;;;20935188;28;20221;-69
2023/03/25 15:26:39;;;;;;;1.23;0.40;;;;;;;;;;20952129;28;20286;-71
2023/03/25 15:36:47;;;;;;;2.67;0.50;;;;;;;;;;20915715;28;20209;-70
2023/03/25 15:46:49;;;;;;;1.43;0.63;;;;;;;;;;20946185;28;20761;-71
2023/03/25 15:56:53;;;;;;;1.20;0.60;;;;;;;;;;20951888;28;20621;-72
2023/03/25 16:06:56;;;;;;;1.83;0.40;;;;;;;;;;20951646;28;20266;-71
2023/03/25 16:16:59;;;;;;;1.37;0.50;;;;;;;;;;20917687;28;20300;-70
2023/03/25 16:27:12;;;;;;;1.00;0.50;;;15.00;99.90;;;;;;20949882;28;20699;-72
2023/03/25 16:37:15;;;;;;;2.20;0.47;;;;;;;;;;20932325;28;20361;-71
2023/03/25 16:47:17;;;;;;;0.60;0.60;;;;;;;;;;20896531;28;20224;-71
2023/03/25 16:57:20;;;;;;;1.50;0.50;;;;;;;;;;20935952;28;20216;-70
2023/03/25 17:07:25;;;;;;;0.77;0.30;;;14.30;99.90;;;;;;20944554;28;20217;-72
2023/03/25 17:17:27;;;;;;;1.47;0.77;;;;;;;;;;20961173;28;20274;-70
2023/03/25 17:27:34;;;;;;;2.67;0.30;;;;;;;;;;20963726;28;20220;-71
2023/03/25 17:37:36;;;;;;;1.47;0.40;;;;;;;;;;20927380;28;20620;-70
2023/03/25 17:47:38;;;;;;;1.40;0.53;;;;;;;;;;20911485;28;20213;-70
2023/03/25 17:57:40;;;;;;;0.40;0.30;;;;;;;;;;20935752;28;20760;-70
2023/03/25 18:07:42;;;;;;;0.20;0.20;;;;;;;;;;20954935;28;20282;-69
2023/03/25 18:17:44;;;;;;;1.67;0.40;;;;;;;;;;20900127;28;20230;-70
2023/03/25 18:27:54;;;;;;;0.37;0.37;;;12.80;99.90;;;;;;20949844;28;20216;-69
2023/03/25 18:37:57;;;;;;;0.20;0.20;;;;;;;;;;20947103;28;20228;-70
2023/03/25 18:47:59;;;;;;;0.40;0.30;;;;;;;;;;20938525;28;20278;-71
2023/03/25 18:58:01;;;;;;;0.20;0.20;;;;;;;;;;20938355;28;20205;-71
2023/03/25 19:08:05;;;;;;;0.63;0.40;;;;;;;;;;20946499;28;20286;-69
2023/03/25 19:18:07;;;;;;;1.37;0.40;;;;;;;;;;20913071;28;20751;-69
2023/03/25 19:28:09;;;;;;;0.20;0.20;;;;;;;;;;20950039;28;20283;-69
2023/03/25 19:38:11;;;;;;;0.83;0.30;;;;;;;;;;20907353;28;20222;-71
2023/03/25 19:48:13;;;;;;;1.40;0.40;;;;;;;;;;20931279;28;20290;-69
2023/03/25 19:58:15;;;;;;;0.10;0.10;;;;;;;;;;20934585;28;20239;-69
2023/03/25 20:08:16;;;;;;;0.60;0.40;;;;;;;;;;20916751;28;20224;-67
2023/03/25 20:18:18;;;;;;;0.83;0.40;;;;;;;;;;20915622;28;20225;-68
2023/03/25 20:28:21;;;;;;;0.43;0.27;;;;;;;;;;20915201;28;20704;-69
2023/03/25 20:38:24;;;;;;;0.37;0.20;;;;;;;;;;20945964;28;20825;-68
2023/03/25 20:48:27;;;;;;;0.77;0.33;;;;;;;;;;20939576;28;20680;-68
2023/03/25 20:58:28;;;;;;;1.30;0.40;;;;;;;;;;20937545;28;20275;-68
2023/03/25 21:08:32;;;;;;;0.20;0.20;;;;;;;;;;20929057;28;20217;-68
2023/03/25 21:18:34;;;;;;;0.20;0.20;;;;;;;;;;20933511;28;20298;-68
2023/03/25 21:28:37;;;;;;;0.97;0.20;;;;;;;;;;20944636;28;20732;-68
2023/03/25 21:38:39;;;;;;;1.53;0.50;;;11.30;99.90;;;;;;20963223;28;20777;-69
2023/03/25 21:48:45;;;;;;;0.50;0.30;;;;;;;;;;20960436;28;20221;-69
2023/03/25 21:58:47;;;;;;;0.77;0.40;;;;;;;;;;20927064;28;20274;-68
2023/03/25 22:08:49;;;;;;;3.90;1.03;;;;;;;;;;20957895;28;20813;-68
2023/03/25 22:18:52;;;;;;;1.07;0.43;;;;;;;;;;20954340;28;20233;-68
2023/03/25 22:28:57;;;;;;;0.43;0.30;;;11.20;99.90;;;;;;20941461;28;20220;-68
2023/03/25 22:39:01;;;;;;;1.27;0.53;;;11.10;99.90;;;;;;20927877;28;20753;-68
2023/03/25 22:49:04;;;;;;;2.17;0.90;;;;;;;;;;20959724;28;20233;-67
2023/03/25 22:59:06;;;;;;;4.10;1.63;;;;;;;;;;20962951;28;20244;-68
2023/03/25 23:09:09;;;;;;;3.47;1.43;;;11.10;99.90;;;;;;20912090;28;20251;-68
2023/03/25 23:19:12;;;;;;;2.27;0.47;;;;;;;;;;20940316;28;20217;-67
2023/03/25 23:29:14;;;;;;;2.87;0.80;;;;;;;;;;20940375;28;20574;-68
2023/03/25 23:39:21;;;;;;;3.07;0.77;;;;;;;;;;20923250;28;20623;-68
2023/03/25 23:49:23;;;;;;;2.10;0.33;;;;;;;;;;20955229;28;20224;-68
2023/03/25 23:59:25;;;;;;;2.37;0.80;;;;;;;;;;20921381;28;20217;-68
